createdAt,value
2022-08-07T00:04:03.528Z,15.328156681527034
2022-08-07T00:19:21.409Z,15.264910864405905
2022-08-07T00:34:35.827Z,15.257499046787284
2022-08-07T00:50:20.194Z,15.256866365441658
2022-08-07T01:05:19.310Z,15.366105157353312
2022-08-07T01:20:30.684Z,15.367163615910858
2022-08-07T01:35:54.203Z,15.38992987764573
2022-08-07T01:50:58.929Z,15.470705134460394
2022-08-07T02:06:31.706Z,15.500221136958265
2022-08-07T02:21:56.665Z,15.564314517822794
2022-08-07T02:36:47.578Z,15.653709870205654
2022-08-07T02:52:04.586Z,15.736428895074782
2022-08-07T03:07:43.071Z,15.784463049174846
2022-08-07T03:22:37.530Z,15.736428895074782
2022-08-07T03:37:54.454Z,15.835729978251814
2022-08-07T03:53:10.461Z,15.937929779407714
2022-08-07T04:08:26.435Z,16.01857284977288
2022-08-07T04:23:43.819Z,15.97021464470894
2022-08-07T04:39:00.395Z,16.004619177089644
2022-08-07T04:54:17.345Z,16.11583357814199
2022-08-07T05:09:45.823Z,16.060740919899512
2022-08-07T05:24:56.656Z,16.045923238730246
2022-08-07T05:40:18.036Z,16.037159358389516
2022-08-07T05:55:25.223Z,16.001558630490475
2022-08-07T06:10:42.513Z,15.893034398566286
2022-08-07T06:25:59.112Z,16.072514127999046
2022-08-07T06:41:15.202Z,15.938577050004735
2022-08-07T06:56:31.088Z,15.974586001656297
2022-08-07T07:12:09.037Z,15.928302324489994
2022-08-07T07:27:03.987Z,15.954664339236365
2022-08-07T07:42:25.666Z,15.962159624496634
2022-08-07T07:57:52.361Z,16.12046956090612
2022-08-07T08:12:59.693Z,16.052426598960864
2022-08-07T08:28:10.860Z,15.971938470951391
2022-08-07T08:43:32.053Z,15.999795035126784
2022-08-07T08:58:42.796Z,16.0557601459317
2022-08-07T09:13:58.790Z,16.08651889198662
2022-08-07T09:30:05.112Z,15.810962765506302
2022-08-07T09:44:46.492Z,16.051057219979928
2022-08-07T10:00:00.968Z,15.789396960202264
2022-08-07T10:15:06.329Z,15.880120492107823
2022-08-07T10:30:22.591Z,15.747170071458214
2022-08-07T10:45:45.198Z,16.090601678574867
2022-08-07T11:00:56.049Z,15.954346656284745
2022-08-07T11:16:10.534Z,16.28363984137449
2022-08-07T11:31:28.493Z,16.12455745537115
2022-08-07T11:46:45.461Z,16.04433465307877
2022-08-07T12:02:02.515Z,16.016167644458207
2022-08-07T12:17:30.335Z,16.24248758156982
2022-08-07T12:32:35.364Z,15.95056595153836
2022-08-07T12:47:51.306Z,16.1010630352342
2022-08-07T13:03:07.327Z,16.02685630931424
2022-08-07T13:18:26.856Z,16.156672798764923
2022-08-07T13:34:30.855Z,16.041758992517657
2022-08-07T13:48:59.567Z,16.107012451009076
2022-08-07T14:04:15.184Z,15.949055120645301
2022-08-07T14:20:43.338Z,16.078127173604354
2022-08-07T14:34:48.128Z,15.1961053805161
2022-08-07T14:50:04.053Z,15.274228964004813
2022-08-07T15:05:23.423Z,15.582715598579126
2022-08-07T15:20:55.969Z,15.056722366022996
2022-08-07T15:36:01.864Z,15.044106173846522
2022-08-07T15:51:12.112Z,14.549194484961886
2022-08-07T16:06:27.903Z,14.286763901477862
2022-08-07T16:22:03.146Z,14.246141227131831
2022-08-07T16:37:02.808Z,13.769736628886912
2022-08-07T16:52:51.991Z,13.649166516865304
2022-08-07T17:07:55.458Z,14.00285944329147
2022-08-07T17:22:49.787Z,14.00070347843841
2022-08-07T17:38:15.101Z,14.286531603637007
2022-08-07T17:54:01.700Z,14.22230986519322
2022-08-07T18:09:00.724Z,14.194901245531048
2022-08-07T18:23:57.457Z,13.818878970421832
2022-08-07T18:40:06.559Z,14.226240563167115
2022-08-07T18:54:31.175Z,14.086974011671137
2022-08-07T19:09:55.830Z,13.595317196591369
2022-08-07T19:25:05.566Z,13.648509614700389
2022-08-07T19:40:30.568Z,13.935246507812275
2022-08-07T19:55:56.913Z,14.286771818477723
2022-08-07T20:10:55.890Z,14.407599768058473
2022-08-07T20:26:11.421Z,14.323183727194383
2022-08-07T20:41:28.386Z,14.445306899525816
2022-08-07T20:56:46.255Z,14.27242750459006
2022-08-07T21:12:00.319Z,14.19670213551381
2022-08-07T21:27:17.254Z,14.220357229554576
2022-08-07T21:42:42.223Z,14.047550564179557
2022-08-07T21:57:52.834Z,14.086076766106201
2022-08-07T22:13:09.419Z,13.99880648275296
2022-08-07T22:28:31.124Z,13.95903452122703
2022-08-07T22:29:13.725Z,13.95903452122703
2022-08-07T22:43:43.135Z,14.022652382344253
2022-08-07T22:59:00.101Z,14.050978323759344
2022-08-07T23:14:16.826Z,14.262278858207852
2022-08-07T23:29:43.832Z,14.206600899583295
2022-08-07T23:44:49.013Z,14.299431082031314
